Time;durP1;ratioP1;P1;durP2;ratioP2;P2;SDS_P1;SDS_P2;PMS_P1;PMS_P2;Temp;Humidity;BMP_temperature;BMP_pressure;BME280_temperature;BME280_humidity;BME280_pressure;Samples;Min_cycle;Max_cycle;Signal;HPM_P1;HPM_P2
2022/05/18 00:00:27;;;;;;;3.28;2.40;;;17.10;99.90;;;;;;4984518;28;20046;-78
2022/05/18 00:02:54;;;;;;;6.68;3.10;;;17.10;99.90;;;;;;4997081;28;20404;-78
2022/05/18 00:05:20;;;;;;;3.35;2.90;;;17.10;99.90;;;;;;5004302;28;20424;-78
2022/05/18 00:07:46;;;;;;;7.55;2.97;;;17.10;99.90;;;;;;5003638;28;20052;-78
2022/05/18 00:10:11;;;;;;;6.70;3.30;;;17.00;99.90;;;;;;5003614;28;20054;-78
2022/05/18 00:12:45;;;;;;;3.40;2.92;;;17.00;99.90;;;;;;5004641;28;20128;-78
2022/05/18 00:15:11;;;;;;;5.43;3.00;;;17.00;99.90;;;;;;5004337;28;20038;-78
2022/05/18 00:17:37;;;;;;;5.43;3.97;;;17.00;99.90;;;;;;5003620;28;20057;-77
2022/05/18 00:20:03;;;;;;;4.72;3.42;;;17.00;99.90;;;;;;5002492;28;20042;-78
2022/05/18 00:22:28;;;;;;;6.50;4.03;;;16.90;99.90;;;;;;5003667;28;20125;-78
2022/05/18 00:24:55;;;;;;;7.13;3.90;;;16.90;99.90;;;;;;5004198;28;20761;-78
2022/05/18 00:27:20;;;;;;;5.38;3.40;;;16.90;99.90;;;;;;5003854;28;20054;-78
2022/05/18 00:29:46;;;;;;;2.35;2.15;;;16.90;99.90;;;;;;5002333;28;20049;-78
2022/05/18 00:32:11;;;;;;;8.73;4.10;;;16.90;99.90;;;;;;5003934;28;20034;-78
2022/05/18 00:34:37;;;;;;;5.63;3.17;;;16.90;99.90;;;;;;5004238;28;20042;-77
2022/05/18 00:37:03;;;;;;;3.83;3.30;;;16.80;99.90;;;;;;5003890;28;20451;-78
2022/05/18 00:39:28;;;;;;;5.47;3.53;;;16.80;99.90;;;;;;5003519;28;20552;-78
2022/05/18 00:41:54;;;;;;;3.83;3.03;;;16.70;99.90;;;;;;5002543;28;20069;-77
2022/05/18 00:44:21;;;;;;;6.55;3.35;;;16.70;99.90;;;;;;5002969;28;20137;-78
2022/05/18 00:46:47;;;;;;;5.50;3.33;;;16.70;99.90;;;;;;4996137;28;20382;-78
2022/05/18 00:49:12;;;;;;;6.25;3.15;;;16.70;99.90;;;;;;4986092;28;20113;-78
2022/05/18 00:51:43;;;;;;;8.68;3.17;;;16.60;99.90;;;;;;4987965;28;20043;-78
2022/05/18 00:54:26;;;;;;;3.85;3.15;;;16.60;99.90;;;;;;4985304;28;20038;-78
2022/05/18 00:57:07;;;;;;;10.65;3.30;;;16.60;99.90;;;;;;4988300;28;20120;-78
2022/05/18 00:59:46;;;;;;;4.60;3.60;;;16.50;99.90;;;;;;4986616;28;20117;-78
2022/05/18 01:02:13;;;;;;;4.30;2.95;;;16.50;99.90;;;;;;4986125;28;20149;-78
2022/05/18 01:04:42;;;;;;;3.50;3.20;;;16.50;99.90;;;;;;4986664;28;20281;-78
2022/05/18 01:07:20;;;;;;;7.95;4.30;;;16.50;99.90;;;;;;4986448;28;20133;-78
2022/05/18 01:09:47;;;;;;;6.97;3.33;;;16.40;99.90;;;;;;4987453;28;20319;-78
2022/05/18 01:12:16;;;;;;;5.45;3.55;;;16.40;99.90;;;;;;4985999;28;20105;-78
2022/05/18 01:14:49;;;;;;;3.53;2.78;;;16.30;99.90;;;;;;5034023;23;20054;-81
2022/05/18 01:17:19;;;;;;;3.33;3.03;;;16.30;99.90;;;;;;5026479;28;20049;-80
2022/05/18 01:19:52;;;;;;;4.22;2.28;;;16.30;99.90;;;;;;5027085;28;20049;-81
2022/05/18 01:22:24;;;;;;;5.18;3.35;;;16.30;99.90;;;;;;5026094;28;20076;-81
2022/05/18 01:25:13;;;;;;;5.47;3.60;;;16.20;99.90;;;;;;5027212;28;20099;-81
2022/05/18 01:27:38;;;;;;;4.22;3.00;;;16.20;99.90;;;;;;5027351;28;20045;-81
2022/05/18 01:30:06;;;;;;;5.55;3.53;;;16.20;99.90;;;;;;5026574;28;20052;-81
2022/05/18 01:32:45;;;;;;;4.82;3.55;;;16.20;99.90;;;;;;5026581;28;20045;-81
2022/05/18 01:35:13;;;;;;;6.18;2.97;;;16.20;99.90;;;;;;5025196;28;20045;-81
2022/05/18 01:37:39;;;;;;;5.15;3.13;;;16.10;99.90;;;;;;5026065;28;20072;-81
2022/05/18 01:40:12;;;;;;;3.58;3.03;;;16.10;99.90;;;;;;5024558;28;20494;-81
2022/05/18 01:42:49;;;;;;;4.18;3.15;;;16.10;99.90;;;;;;5026759;28;20034;-81
2022/05/18 01:45:15;;;;;;;4.25;3.47;;;16.10;99.90;;;;;;5026222;28;20618;-81
2022/05/18 01:47:41;;;;;;;5.25;3.67;;;16.00;99.90;;;;;;5026305;28;20045;-81
2022/05/18 01:50:13;;;;;;;9.88;4.03;;;16.00;99.90;;;;;;5026102;28;20128;-81
2022/05/18 01:52:38;;;;;;;4.50;3.85;;;16.00;99.90;;;;;;5025207;28;20041;-81
2022/05/18 01:55:05;;;;;;;4.28;3.10;;;16.00;99.90;;;;;;5026030;28;20055;-81
2022/05/18 01:57:32;;;;;;;6.07;4.43;;;16.00;99.90;;;;;;5025693;28;20037;-81
2022/05/18 01:59:57;;;;;;;3.28;3.05;;;15.90;99.90;;;;;;5009044;28;20057;-81
2022/05/18 02:02:24;;;;;;;9.32;3.00;;;16.00;99.90;;;;;;5024958;28;20040;-80
2022/05/18 02:04:50;;;;;;;6.00;3.85;;;15.90;99.90;;;;;;5024464;28;20428;-80
2022/05/18 02:07:15;;;;;;;5.38;4.30;;;15.90;99.90;;;;;;5023185;28;20179;-81
2022/05/18 02:09:41;;;;;;;5.18;3.08;;;15.90;99.90;;;;;;5024816;28;20037;-81
2022/05/18 02:12:09;;;;;;;5.00;3.22;;;15.90;99.90;;;;;;5025791;28;20044;-81
2022/05/18 02:14:35;;;;;;;5.88;3.50;;;15.90;99.90;;;;;;5026002;28;20057;-81
2022/05/18 02:17:00;;;;;;;6.80;3.53;;;15.90;99.90;;;;;;5024806;28;20068;-81
2022/05/18 02:19:26;;;;;;;5.63;3.85;;;15.90;99.90;;;;;;5026276;28;20120;-81
2022/05/18 02:21:51;;;;;;;7.43;3.90;;;15.80;99.90;;;;;;5024540;28;20041;-80
2022/05/18 02:24:17;;;;;;;5.68;3.85;;;15.80;99.90;;;;;;5024928;28;20034;-81
2022/05/18 02:26:43;;;;;;;9.77;4.38;;;15.80;99.90;;;;;;5025799;28;20480;-81
2022/05/18 02:29:09;;;;;;;7.60;4.82;;;15.80;99.90;;;;;;5024030;28;20399;-80
2022/05/18 02:31:36;;;;;;;4.60;3.50;;;15.80;99.90;;;;;;5024824;28;20037;-81
2022/05/18 02:34:02;;;;;;;8.35;4.03;;;15.70;99.90;;;;;;5025285;28;20088;-81
2022/05/18 02:36:28;;;;;;;7.57;4.45;;;15.70;99.90;;;;;;5025853;28;20133;-81
2022/05/18 02:38:54;;;;;;;5.05;4.07;;;15.70;99.90;;;;;;5023593;28;20116;-81
2022/05/18 02:41:20;;;;;;;5.57;4.07;;;15.60;99.90;;;;;;5024774;28;20060;-80
2022/05/18 02:43:45;;;;;;;7.75;4.45;;;15.60;99.90;;;;;;5025559;28;20049;-81
2022/05/18 02:46:21;;;;;;;4.80;3.63;;;15.60;99.90;;;;;;5025312;28;20084;-81
2022/05/18 02:48:48;;;;;;;5.75;4.03;;;15.60;99.90;;;;;;5024212;28;20388;-81
2022/05/18 02:51:15;;;;;;;8.95;3.75;;;15.60;99.90;;;;;;5025116;28;20049;-80
2022/05/18 02:53:41;;;;;;;8.15;3.83;;;15.60;99.90;;;;;;5023940;28;20848;-81
2022/05/18 02:56:10;;;;;;;4.57;3.70;;;15.60;99.90;;;;;;5025079;28;20140;-81
2022/05/18 02:58:42;;;;;;;7.60;4.47;;;15.60;99.90;;;;;;5023906;28;20041;-81
2022/05/18 03:01:16;;;;;;;7.70;4.50;;;15.60;99.90;;;;;;5025160;28;20132;-81
2022/05/18 03:03:44;;;;;;;7.55;4.25;;;15.50;99.90;;;;;;5025336;28;20080;-81
2022/05/18 03:06:12;;;;;;;5.38;3.92;;;15.50;99.90;;;;;;5023482;28;20525;-81
2022/05/18 03:08:40;;;;;;;10.30;4.60;;;15.50;99.90;;;;;;5023782;28;20592;-81
2022/05/18 03:11:06;;;;;;;9.20;3.78;;;15.50;99.90;;;;;;5023630;28;20045;-81
2022/05/18 03:13:32;;;;;;;5.68;3.88;;;15.50;99.90;;;;;;5023489;28;20059;-81
2022/05/18 03:15:58;;;;;;;6.55;4.43;;;15.40;99.90;;;;;;5025480;28;20049;-81
2022/05/18 03:18:25;;;;;;;5.25;4.55;;;15.50;99.90;;;;;;5024621;28;20215;-81
2022/05/18 03:23:34;;;;;;;7.38;4.70;;;15.40;99.90;;;;;;5023810;28;20057;-81
2022/05/18 03:26:04;;;;;;;5.95;4.25;;;15.40;99.90;;;;;;5023915;28;20045;-81
2022/05/18 03:28:30;;;;;;;5.15;4.13;;;15.30;99.90;;;;;;5025136;28;20099;-81
2022/05/18 03:30:56;;;;;;;7.72;4.50;;;15.30;99.90;;;;;;5024560;28;20050;-81
2022/05/18 03:33:22;;;;;;;7.20;4.82;;;15.30;99.90;;;;;;5023733;28;20049;-80
2022/05/18 03:35:49;;;;;;;5.22;4.40;;;15.30;99.90;;;;;;5024661;28;20045;-81
2022/05/18 03:38:16;;;;;;;4.53;4.03;;;15.30;99.90;;;;;;5023386;28;20116;-81
2022/05/18 03:40:42;;;;;;;5.45;4.93;;;15.30;99.90;;;;;;5023974;28;20042;-81
2022/05/18 03:43:08;;;;;;;7.07;4.63;;;15.30;99.90;;;;;;5023678;28;20056;-81
2022/05/18 03:45:33;;;;;;;6.28;4.35;;;15.30;99.90;;;;;;5023903;28;20045;-80
2022/05/18 03:47:59;;;;;;;5.97;4.07;;;15.20;99.90;;;;;;5024047;28;20072;-81
2022/05/18 03:50:28;;;;;;;4.90;4.22;;;15.20;99.90;;;;;;5022176;28;20049;-81
2022/05/18 03:52:55;;;;;;;5.78;5.10;;;15.20;99.90;;;;;;5022708;28;21116;-81
2022/05/18 03:55:21;;;;;;;6.10;3.90;;;15.20;99.90;;;;;;5021710;28;20582;-81
2022/05/18 03:57:47;;;;;;;5.90;4.43;;;15.20;99.90;;;;;;5024021;28;20081;-81
2022/05/18 04:00:13;;;;;;;6.75;5.28;;;15.20;99.90;;;;;;5023492;28;20045;-81
2022/05/18 04:02:40;;;;;;;8.45;4.22;;;15.20;99.90;;;;;;5022529;28;20041;-81
2022/05/18 04:05:07;;;;;;;9.45;5.03;;;15.20;99.90;;;;;;5023639;28;20440;-81
2022/05/18 04:07:33;;;;;;;11.40;3.45;;;15.20;99.90;;;;;;5023009;28;20045;-82
2022/05/18 04:09:59;;;;;;;10.15;3.97;;;15.20;99.90;;;;;;5022602;28;20518;-81
2022/05/18 04:12:27;;;;;;;7.05;4.43;;;15.30;99.90;;;;;;5023700;28;20037;-81
2022/05/18 04:14:54;;;;;;;10.65;5.45;;;15.30;99.90;;;;;;5023188;28;20115;-81
2022/05/18 04:17:21;;;;;;;7.25;4.93;;;15.20;99.90;;;;;;5022330;28;20053;-81
2022/05/18 04:19:47;;;;;;;7.53;4.53;;;15.30;99.90;;;;;;5023652;28;20099;-81
2022/05/18 04:22:12;;;;;;;6.70;4.97;;;15.30;99.90;;;;;;5025240;28;20046;-81
2022/05/18 04:24:38;;;;;;;7.97;5.32;;;15.30;99.90;;;;;;5027050;28;20057;-81
2022/05/18 04:27:06;;;;;;;6.20;4.50;;;15.30;99.90;;;;;;5027156;28;20064;-81
2022/05/18 04:29:32;;;;;;;7.50;5.10;;;15.30;99.90;;;;;;5027905;28;20056;-81
2022/05/18 04:31:57;;;;;;;6.88;4.65;;;15.40;99.90;;;;;;5009767;28;20049;-81
2022/05/18 04:34:25;;;;;;;8.38;4.60;;;15.40;99.90;;;;;;5026684;28;20046;-81
2022/05/18 04:36:51;;;;;;;10.10;5.10;;;15.40;99.90;;;;;;5026661;28;20045;-81
2022/05/18 04:39:19;;;;;;;7.05;4.18;;;15.40;99.90;;;;;;5026837;28;20052;-81
2022/05/18 04:41:45;;;;;;;9.43;5.40;;;15.50;99.90;;;;;;5026330;28;20458;-81
2022/05/18 04:44:11;;;;;;;9.13;5.03;;;15.50;99.90;;;;;;5026926;28;20041;-81
2022/05/18 04:46:36;;;;;;;6.00;5.03;;;15.50;99.90;;;;;;5019304;28;20037;-81
2022/05/18 04:49:06;;;;;;;8.52;3.90;;;15.50;99.90;;;;;;5006080;28;20046;-81
2022/05/18 04:51:31;;;;;;;7.65;4.22;;;15.50;99.90;;;;;;5006533;28;20038;-82
2022/05/18 04:53:57;;;;;;;8.43;4.72;;;15.50;99.90;;;;;;5009657;28;20030;-82
2022/05/18 04:56:24;;;;;;;11.70;5.57;;;15.50;99.90;;;;;;5025679;28;20038;-82
2022/05/18 04:58:50;;;;;;;5.28;4.78;;;15.60;99.90;;;;;;5025993;28;20052;-81
2022/05/18 05:01:16;;;;;;;8.88;4.55;;;15.50;99.90;;;;;;5026526;28;20046;-82
2022/05/18 05:03:42;;;;;;;7.93;5.03;;;15.60;99.90;;;;;;5026030;28;20041;-81
2022/05/18 05:06:07;;;;;;;6.55;4.90;;;15.50;99.90;;;;;;5027083;28;20707;-82
2022/05/18 05:08:37;;;;;;;11.20;4.88;;;15.60;99.90;;;;;;5025899;28;20502;-81
2022/05/18 05:11:04;;;;;;;6.15;4.75;;;15.60;99.90;;;;;;5025633;28;20171;-82
2022/05/18 05:13:30;;;;;;;7.90;5.88;;;15.60;99.90;;;;;;5027151;28;20045;-81
2022/05/18 05:16:14;;;;;;;9.35;5.15;;;15.60;99.90;;;;;;5027298;28;20179;-81
2022/05/18 05:18:40;;;;;;;8.98;5.85;;;15.60;99.90;;;;;;5027405;28;20117;-81
2022/05/18 05:21:05;;;;;;;7.78;6.05;;;15.70;99.90;;;;;;5026300;28;20159;-81
2022/05/18 05:23:32;;;;;;;9.60;6.13;;;15.70;99.90;;;;;;5025158;28;20223;-80
2022/05/18 05:25:59;;;;;;;15.10;5.75;;;15.70;99.90;;;;;;5027148;28;20045;-83
2022/05/18 05:28:25;;;;;;;8.88;5.82;;;15.80;99.90;;;;;;5025518;28;20045;-80
2022/05/18 05:30:51;;;;;;;7.57;5.05;;;15.80;99.90;;;;;;5019960;28;20049;-80
2022/05/18 05:33:17;;;;;;;8.60;6.10;;;15.80;99.90;;;;;;5024366;28;20060;-79
2022/05/18 05:35:42;;;;;;;11.40;5.32;;;15.90;99.90;;;;;;5024917;28;20061;-81
2022/05/18 05:38:09;;;;;;;7.18;5.50;;;15.90;99.90;;;;;;5020582;28;20056;-81
2022/05/18 05:40:35;;;;;;;8.68;6.07;;;16.00;99.90;;;;;;5024354;28;20045;-81
2022/05/18 05:43:11;;;;;;;10.20;6.50;;;16.00;99.90;;;;;;5021013;28;20041;-82
2022/05/18 05:45:38;;;;;;;10.75;6.22;;;16.10;99.90;;;;;;5025693;28;20041;-84
2022/05/18 05:48:09;;;;;;;11.18;6.38;;;16.10;99.90;;;;;;5011516;28;20122;-83
2022/05/18 05:50:35;;;;;;;6.90;5.80;;;16.10;99.90;;;;;;5021070;28;20376;-82
2022/05/18 05:53:01;;;;;;;11.25;6.15;;;16.20;99.90;;;;;;5016947;28;20042;-81
2022/05/18 05:55:28;;;;;;;7.93;5.28;;;16.20;99.90;;;;;;5019948;28;20045;-79
2022/05/18 05:57:56;;;;;;;11.27;6.75;;;16.20;99.90;;;;;;5021015;28;20084;-79
2022/05/18 06:00:23;;;;;;;11.32;6.05;;;16.30;99.90;;;;;;5025715;28;20388;-79
2022/05/18 06:02:50;;;;;;;9.18;6.30;;;16.30;99.90;;;;;;5022117;28;20115;-79
2022/05/18 06:05:17;;;;;;;8.43;6.95;;;16.30;99.90;;;;;;5025530;28;20725;-79
2022/05/18 06:07:43;;;;;;;8.73;6.53;;;16.30;99.90;;;;;;5018904;28;20048;-77
2022/05/18 06:10:09;;;;;;;9.32;6.28;;;16.40;99.90;;;;;;5019552;28;20045;-79
2022/05/18 06:12:35;;;;;;;12.82;8.05;;;16.50;99.90;;;;;;5019350;28;20058;-80
2022/05/18 06:15:01;;;;;;;16.95;8.55;;;16.50;99.90;;;;;;5021719;28;20064;-80
2022/05/18 06:17:27;;;;;;;8.68;7.13;;;16.50;99.90;;;;;;5025791;28;20076;-79
2022/05/18 06:19:52;;;;;;;15.68;7.80;;;16.60;99.90;;;;;;5023911;28;20080;-79
2022/05/18 06:22:18;;;;;;;11.88;7.05;;;16.60;99.90;;;;;;5024421;28;20040;-77
2022/05/18 06:24:47;;;;;;;12.23;7.35;;;16.60;99.90;;;;;;5025426;28;20037;-77
2022/05/18 06:27:13;;;;;;;14.73;8.52;;;16.70;99.90;;;;;;5023996;28;20103;-77
2022/05/18 06:29:39;;;;;;;10.55;7.95;;;16.70;99.90;;;;;;5025568;28;20077;-78
2022/05/18 06:32:05;;;;;;;11.32;7.78;;;16.80;99.90;;;;;;5023779;28;20048;-78
2022/05/18 06:34:31;;;;;;;9.98;7.40;;;16.90;99.90;;;;;;5023839;28;20045;-78
2022/05/18 06:36:57;;;;;;;15.43;8.18;;;16.90;99.90;;;;;;5024529;28;20119;-78
2022/05/18 06:39:22;;;;;;;13.07;8.75;;;17.10;99.90;;;;;;5025360;28;20249;-78
2022/05/18 06:41:48;;;;;;;15.88;8.23;;;17.10;99.90;;;;;;5024984;28;20483;-77
2022/05/18 06:44:14;;;;;;;14.10;8.25;;;17.20;99.90;;;;;;5024086;28;20487;-77
2022/05/18 06:46:39;;;;;;;11.15;7.88;;;17.30;99.90;;;;;;5023676;28;20631;-78
2022/05/18 06:49:07;;;;;;;13.50;7.82;;;17.30;99.90;;;;;;5012282;28;20106;-77
2022/05/18 06:51:36;;;;;;;12.70;7.53;;;17.40;99.90;;;;;;5022296;28;20129;-78
2022/05/18 06:54:03;;;;;;;10.52;8.02;;;17.30;99.90;;;;;;5024748;28;20505;-78
2022/05/18 06:56:31;;;;;;;11.57;7.82;;;17.40;99.90;;;;;;5024978;28;20056;-78
2022/05/18 06:58:57;;;;;;;15.10;8.02;;;17.50;99.90;;;;;;5025893;28;20049;-77
2022/05/18 07:01:24;;;;;;;16.00;8.85;;;17.50;99.90;;;;;;5024294;28;20061;-77
2022/05/18 07:03:50;;;;;;;10.50;6.85;;;17.50;99.90;;;;;;5025005;28;20045;-77
2022/05/18 07:06:19;;;;;;;9.70;8.32;;;17.60;99.90;;;;;;5023728;28;20054;-77
2022/05/18 07:08:45;;;;;;;14.30;7.70;;;17.70;99.90;;;;;;5023313;28;20492;-77
2022/05/18 07:11:11;;;;;;;11.05;7.10;;;17.60;99.90;;;;;;5022830;28;20049;-77
2022/05/18 07:13:38;;;;;;;10.77;7.07;;;17.70;99.90;;;;;;5024385;28;20069;-77
2022/05/18 07:16:04;;;;;;;12.48;6.88;;;17.80;99.90;;;;;;5024131;28;20056;-78
2022/05/18 07:18:32;;;;;;;12.25;8.30;;;17.80;99.90;;;;;;5025001;28;20034;-78
2022/05/18 07:20:59;;;;;;;8.52;6.50;;;17.90;99.90;;;;;;5024709;28;20128;-77
2022/05/18 07:23:26;;;;;;;11.23;7.97;;;17.90;99.90;;;;;;5023460;28;20817;-78
2022/05/18 07:25:52;;;;;;;14.68;8.43;;;18.00;99.90;;;;;;5022703;28;20121;-77
2022/05/18 07:28:18;;;;;;;13.18;6.88;;;18.00;99.90;;;;;;5022929;28;20168;-78
2022/05/18 07:30:44;;;;;;;10.20;7.07;;;18.00;99.90;;;;;;5023876;28;20096;-78
2022/05/18 07:33:10;;;;;;;11.15;6.90;;;18.10;99.90;;;;;;5023471;28;20052;-78
2022/05/18 07:35:36;;;;;;;13.77;7.95;;;18.10;99.90;;;;;;5024106;28;20045;-78
2022/05/18 07:38:02;;;;;;;15.23;7.78;;;18.20;99.90;;;;;;5022845;28;20561;-78
2022/05/18 07:40:27;;;;;;;9.70;7.15;;;18.20;99.90;;;;;;5024199;28;20034;-78
2022/05/18 07:42:56;;;;;;;18.25;7.63;;;18.30;99.90;;;;;;5023479;28;20048;-77
2022/05/18 07:45:23;;;;;;;14.15;8.05;;;18.30;99.90;;;;;;5023397;28;20049;-78
2022/05/18 07:47:51;;;;;;;11.18;7.50;;;18.30;99.90;;;;;;5023373;28;20045;-78
2022/05/18 07:50:17;;;;;;;12.38;7.57;;;18.40;99.90;;;;;;5023346;28;20069;-78
2022/05/18 07:52:43;;;;;;;13.65;7.50;;;18.40;99.90;;;;;;5022444;28;20073;-77
2022/05/18 07:55:09;;;;;;;19.42;8.52;;;18.50;99.90;;;;;;5023956;28;20088;-77
2022/05/18 07:57:34;;;;;;;15.13;9.20;;;18.50;99.90;;;;;;5028280;28;20073;-77
2022/05/18 08:00:00;;;;;;;11.88;7.10;;;18.60;99.90;;;;;;5030514;28;20067;-78
2022/05/18 08:02:30;;;;;;;11.77;9.32;;;18.60;99.90;;;;;;5030619;28;20041;-77
2022/05/18 08:04:56;;;;;;;10.68;7.72;;;18.70;99.90;;;;;;5030647;28;20046;-77
2022/05/18 08:07:21;;;;;;;14.90;8.95;;;18.70;99.90;;;;;;5028659;28;20052;-78
2022/05/18 08:15:17;;;;;;;8.88;6.80;;;18.90;99.90;;;;;;5029664;28;20049;-78
2022/05/18 08:17:44;;;;;;;13.27;9.95;;;18.90;99.90;;;;;;5028467;28;20046;-78
2022/05/18 08:20:13;;;;;;;15.02;9.45;;;18.90;99.90;;;;;;5029537;28;20045;-78
2022/05/18 08:22:40;;;;;;;12.65;7.13;;;19.00;99.90;;;;;;5027588;28;20124;-78
2022/05/18 08:25:07;;;;;;;9.38;7.85;;;19.10;99.90;;;;;;5029544;28;20045;-78
2022/05/18 08:27:34;;;;;;;9.40;7.18;;;19.10;99.90;;;;;;5029673;28;20037;-78
2022/05/18 08:30:03;;;;;;;10.27;7.18;;;19.10;99.90;;;;;;5030359;28;20095;-78
2022/05/18 08:32:28;;;;;;;14.18;7.68;;;19.10;99.90;;;;;;5029944;28;20044;-78
2022/05/18 08:34:54;;;;;;;10.20;7.20;;;19.10;99.90;;;;;;5029911;28;20116;-78
2022/05/18 08:37:22;;;;;;;16.30;7.00;;;19.20;99.90;;;;;;5027565;28;20086;-77
2022/05/18 08:39:49;;;;;;;21.20;7.40;;;19.30;99.90;;;;;;5030083;28;20129;-78
2022/05/18 08:42:14;;;;;;;11.30;8.45;;;19.30;99.90;;;;;;5028022;28;20056;-78
2022/05/18 08:44:40;;;;;;;12.38;7.72;;;19.30;99.90;;;;;;5028587;28;20041;-78
2022/05/18 08:47:20;;;;;;;7.95;6.70;;;19.40;99.90;;;;;;5015734;28;20041;-78
2022/05/18 08:50:10;;;;;;;11.40;8.60;;;19.30;99.90;;;;;;5008621;28;20077;-78
2022/05/18 08:52:48;;;;;;;13.23;8.05;;;19.40;99.90;;;;;;5007474;28;20046;-78
2022/05/18 08:55:33;;;;;;;11.32;7.70;;;19.50;99.90;;;;;;5008499;28;20045;-78
2022/05/18 08:58:00;;;;;;;13.57;9.05;;;19.50;99.90;;;;;;5009890;28;20045;-78
2022/05/18 09:00:32;;;;;;;12.55;8.57;;;19.50;99.90;;;;;;5010158;28;20038;-78
2022/05/18 09:03:03;;;;;;;12.93;8.65;;;19.60;99.90;;;;;;5010116;28;20042;-78
2022/05/18 09:05:42;;;;;;;15.27;10.15;;;19.70;99.90;;;;;;5009129;28;20052;-78
2022/05/18 09:08:14;;;;;;;8.60;7.03;;;19.70;99.90;;;;;;5006106;28;20093;-78
2022/05/18 09:11:01;;;;;;;16.30;7.07;;;19.80;99.90;;;;;;5006867;28;20045;-77
2022/05/18 09:13:28;;;;;;;12.27;7.10;;;19.90;99.90;;;;;;4989155;28;20038;-78
2022/05/18 09:15:59;;;;;;;9.32;6.95;;;19.90;99.90;;;;;;5006580;28;20058;-78
2022/05/18 09:18:45;;;;;;;9.70;6.32;;;20.00;99.90;;;;;;5004746;28;20412;-87
2022/05/18 09:21:27;;;;;;;9.82;6.70;;;20.00;99.90;;;;;;4996904;28;20050;-78
2022/05/18 09:24:16;;;;;;;7.03;5.82;;;20.00;99.90;;;;;;5007470;28;20045;-79
2022/05/18 09:26:59;;;;;;;8.85;7.10;;;20.00;99.90;;;;;;5019445;28;20046;-79
2022/05/18 09:29:28;;;;;;;11.93;7.85;;;20.00;99.90;;;;;;5022172;28;20049;-80
2022/05/18 09:32:02;;;;;;;13.98;8.90;;;20.00;99.90;;;;;;5023601;28;20503;-79
2022/05/18 09:34:46;;;;;;;11.73;7.63;;;20.00;99.90;;;;;;5013671;28;20049;-79
2022/05/18 09:37:35;;;;;;;16.83;8.35;;;20.00;99.90;;;;;;5015718;28;20045;-79
2022/05/18 09:40:19;;;;;;;12.40;7.50;;;20.10;99.90;;;;;;5002175;28;20045;-79
2022/05/18 09:42:52;;;;;;;10.60;7.85;;;20.10;99.90;;;;;;5015907;28;20040;-79
2022/05/18 09:45:25;;;;;;;16.77;8.32;;;20.20;99.90;;;;;;5015701;28;20046;-79
2022/05/18 09:48:13;;;;;;;16.95;8.13;;;20.20;99.90;;;;;;5010486;28;20049;-76
2022/05/18 09:50:43;;;;;;;16.30;8.45;;;20.20;99.90;;;;;;5011981;28;20038;-79
2022/05/18 09:53:09;;;;;;;13.05;9.43;;;20.20;99.90;;;;;;5022134;28;20045;-80
2022/05/18 09:55:35;;;;;;;11.13;7.70;;;20.20;99.90;;;;;;5014814;28;20040;-82
2022/05/18 09:58:25;;;;;;;15.77;9.98;;;20.30;99.90;;;;;;4996578;28;20034;-81
2022/05/18 10:07:27;;;;;;;10.85;7.72;;;20.20;99.90;;;;;;5006640;28;20060;-82
2022/05/18 10:09:59;;;;;;;12.05;7.93;;;20.30;99.90;;;;;;5005776;28;20203;-81
2022/05/18 10:12:41;;;;;;;10.80;7.90;;;20.20;99.90;;;;;;5021780;28;20516;-81
2022/05/18 10:15:19;;;;;;;14.07;8.52;;;20.30;99.90;;;;;;5023151;28;20056;-81
2022/05/18 10:17:50;;;;;;;11.23;6.90;;;20.20;99.90;;;;;;5025473;28;20432;-81
2022/05/18 10:21:03;;;;;;;10.23;7.07;;;20.20;99.90;;;;;;5024574;28;20053;-81
2022/05/18 10:23:34;;;;;;;11.80;6.95;;;20.20;99.90;;;;;;5006104;28;20705;-81
2022/05/18 10:26:01;;;;;;;11.95;8.38;;;20.20;99.90;;;;;;5024562;28;20061;-79
2022/05/18 10:28:29;;;;;;;9.60;6.60;;;20.30;99.90;;;;;;5023237;28;20033;-80
2022/05/18 10:31:04;;;;;;;8.02;6.47;;;20.40;99.90;;;;;;5017411;28;20037;-81
2022/05/18 10:33:40;;;;;;;12.27;7.53;;;20.50;99.90;;;;;;5024120;28;20517;-82
2022/05/18 10:36:23;;;;;;;8.00;6.40;;;20.50;99.90;;;;;;5022833;28;20124;-82
2022/05/18 10:38:52;;;;;;;14.30;7.75;;;20.50;99.90;;;;;;5023662;28;20136;-82
2022/05/18 10:41:24;;;;;;;10.98;7.57;;;20.60;99.90;;;;;;5024752;28;20046;-84
2022/05/18 10:44:02;;;;;;;12.68;8.05;;;20.60;99.90;;;;;;5024129;28;20383;-86
2022/05/18 10:46:37;;;;;;;11.88;8.25;;;20.60;99.90;;;;;;5023769;28;20517;-81
2022/05/18 10:49:08;;;;;;;11.55;8.45;;;20.60;99.90;;;;;;5024127;28;20052;-81
2022/05/18 10:51:41;;;;;;;11.23;8.18;;;20.60;99.90;;;;;;5023317;28;20072;-81
2022/05/18 10:54:26;;;;;;;10.73;6.88;;;20.60;99.90;;;;;;5005967;28;20057;-80
2022/05/18 10:57:07;;;;;;;12.57;7.43;;;20.60;99.90;;;;;;5024577;28;20045;-80
2022/05/18 10:59:54;;;;;;;15.57;7.22;;;20.60;99.90;;;;;;5023895;28;20055;-80
2022/05/18 11:02:30;;;;;;;9.85;7.53;;;20.60;99.90;;;;;;5022942;28;20459;-79
2022/05/18 11:05:09;;;;;;;17.10;7.15;;;20.60;99.90;;;;;;5024258;28;20052;-77
2022/05/18 11:07:34;;;;;;;10.00;6.57;;;20.60;99.90;;;;;;5023370;28;20423;-79
2022/05/18 11:10:00;;;;;;;10.15;7.03;;;20.70;99.90;;;;;;5024998;28;20134;-78
2022/05/18 11:13:04;;;;;;;13.00;7.15;;;20.70;99.90;;;;;;5023456;28;20171;-77
2022/05/18 11:16:11;;;;;;;14.95;7.28;;;20.70;99.90;;;;;;5040728;28;20071;-77
2022/05/18 11:18:48;;;;;;;8.00;6.15;;;20.70;99.90;;;;;;4974064;28;20558;-78
2022/05/18 11:21:46;;;;;;;12.60;7.00;;;20.80;99.90;;;;;;5022747;28;20416;-78
2022/05/18 11:24:23;;;;;;;12.50;7.20;;;20.90;99.90;;;;;;5004495;28;20045;-78
2022/05/18 11:27:11;;;;;;;9.43;7.03;;;21.00;99.90;;;;;;5023625;28;20065;-81
2022/05/18 11:30:06;;;;;;;11.57;6.65;;;21.00;99.90;;;;;;5024484;28;20120;-79
2022/05/18 11:32:44;;;;;;;9.73;6.45;;;21.00;99.90;;;;;;5022749;28;20045;-79
2022/05/18 11:35:31;;;;;;;8.98;6.65;;;21.00;99.90;;;;;;4990106;28;20408;-79
2022/05/18 11:38:25;;;;;;;8.27;5.53;;;21.00;99.90;;;;;;5015076;28;20682;-79
2022/05/18 11:41:00;;;;;;;9.68;6.80;;;21.00;99.90;;;;;;5012116;28;20061;-79
2022/05/18 11:43:42;;;;;;;6.43;5.57;;;21.10;99.90;;;;;;5022211;28;20377;-79
2022/05/18 11:46:19;;;;;;;16.05;8.23;;;21.00;99.90;;;;;;5013614;28;20116;-79
2022/05/18 11:48:45;;;;;;;8.52;7.50;;;21.00;99.90;;;;;;5010499;28;20053;-80
2022/05/18 11:51:30;;;;;;;12.98;6.90;;;21.00;99.90;;;;;;5023765;28;20124;-85
2022/05/18 11:54:43;;;;;;;11.77;6.45;;;21.00;99.90;;;;;;5026027;28;20042;-79
2022/05/18 11:57:38;;;;;;;7.90;6.97;;;21.10;99.90;;;;;;5005491;28;20528;-79
2022/05/18 12:03:13;;;;;;;;;;;21.10;99.90;;;;;;5023752;28;20054;-82
2022/05/18 12:06:09;;;;;;;13.82;6.63;;;21.10;99.90;;;;;;5022136;28;19928;-82
2022/05/18 12:09:07;;;;;;;11.07;5.43;;;21.00;99.90;;;;;;5023638;28;20050;-83
2022/05/18 12:11:44;;;;;;;11.68;6.30;;;21.10;99.90;;;;;;5022844;28;20053;-82
2022/05/18 12:14:33;;;;;;;8.68;6.50;;;21.10;99.90;;;;;;5016219;28;20175;-86
2022/05/18 12:17:11;;;;;;;11.57;6.90;;;21.10;99.90;;;;;;5021018;28;20835;-83
2022/05/18 12:19:43;;;;;;;6.95;5.70;;;21.10;99.90;;;;;;5021780;28;20496;-84
2022/05/18 12:22:13;;;;;;;8.25;6.32;;;21.00;99.90;;;;;;5022364;28;20038;-84
2022/05/18 12:24:41;;;;;;;10.18;6.75;;;21.10;99.90;;;;;;5021721;28;20077;-85
2022/05/18 12:27:10;;;;;;;12.15;6.72;;;21.00;99.90;;;;;;5021799;28;20037;-84
2022/05/18 12:29:36;;;;;;;13.57;7.93;;;21.10;99.90;;;;;;5023146;28;20052;-85
2022/05/18 12:32:05;;;;;;;12.52;7.50;;;21.10;99.90;;;;;;5021239;28;20314;-82
2022/05/18 12:34:33;;;;;;;14.20;7.57;;;21.10;99.90;;;;;;5016316;28;20046;-79
2022/05/18 12:37:17;;;;;;;14.20;6.70;;;21.10;99.90;;;;;;5013774;28;20484;-80
2022/05/18 12:39:50;;;;;;;8.95;5.72;;;21.10;99.90;;;;;;5018197;28;20045;-80
2022/05/18 12:42:23;;;;;;;9.95;6.05;;;21.10;99.90;;;;;;5018275;28;20103;-81
2022/05/18 12:45:01;;;;;;;10.98;7.85;;;21.10;99.90;;;;;;5015782;28;20045;-84
2022/05/18 12:47:39;;;;;;;13.68;6.13;;;21.10;99.90;;;;;;5015278;28;20046;-86
2022/05/18 12:50:16;;;;;;;7.85;6.78;;;21.00;99.90;;;;;;5025235;28;20163;-85
2022/05/18 12:52:54;;;;;;;8.65;6.40;;;21.00;99.90;;;;;;5024916;28;20041;-84
2022/05/18 12:56:09;;;;;;;12.00;6.90;;;21.00;99.90;;;;;;5041829;28;20042;-85
2022/05/18 12:58:37;;;;;;;11.93;6.38;;;21.00;99.90;;;;;;5024829;28;20042;-85
2022/05/18 13:01:16;;;;;;;8.10;6.35;;;21.00;99.90;;;;;;5026520;28;20041;-85
2022/05/18 13:04:05;;;;;;;9.07;5.45;;;21.00;99.90;;;;;;5025768;28;20045;-83
2022/05/18 13:06:36;;;;;;;6.78;5.72;;;20.90;99.90;;;;;;5022624;28;20492;-84
2022/05/18 13:09:27;;;;;;;11.55;6.20;;;20.90;99.90;;;;;;5019814;28;20050;-83
2022/05/18 13:12:14;;;;;;;14.77;6.55;;;20.90;99.90;;;;;;5014812;28;20658;-84
2022/05/18 13:14:42;;;;;;;15.57;6.47;;;20.90;99.90;;;;;;5016964;28;20475;-85
2022/05/18 13:17:11;;;;;;;11.52;5.90;;;20.90;99.90;;;;;;5018780;28;20058;-84
2022/05/18 13:19:41;;;;;;;12.77;5.90;;;20.90;99.90;;;;;;5018512;28;20080;-84